Hauptseite
METAR-TAF:

METAR-TAF

Flughäfen :

Flughafen Braunschweig-Wolfsburg

Braunschweig, Deutschland

Breite: 52-18N, Länge: 010-27E, Höhe: 81 m

Beobachtung

Neuester Wetterbericht von vor 9 Stunden und 45 Minuten, um 15:50 UTC
Wind 15 kt aus West
Temperatur 8°C
Luftfeuchtigkeit 53%
Luftdruck 1009 hPa
Sichtweite 10 km oder mehr
Geschlossene Wolkendecke in der Höhe von 4100 ft

METAR: EDVE 021550Z 26015KT 9999 OVC041 08/M01 Q1009

Zeit: 03:35 (01:35 UTC)

Prognose

Neuester Wetterbericht von vor 11 Stunden und 35 Minuten, um 14:00 UTC
Gültige Prognose vom 02 um 15 UTC bis 02 um 21 UTC
Wind 13 kt aus West
Sichtweite 10 km oder mehr
Durchbrochene Bewölkung in der Höhe von 4500 ft

TAF: EDVE 021400Z 0215/0221 27013KT 9999 BKN045

Wetterbeobachtungen und Prognosen von mehr als 4000 Flughäfen (METAR und TAF Bericht).

Die verfügbaren Stationen werden durch gelbe und rote Markierungen auf der Karte dargestellt.

Führen Sie die Maus auf sie, um den Namen der Station zu sehen.

Darauf klicken, um die Beobachtung von Wetterbeobachtungen und Prognosen zu sehen.

Um die Karte zu ändern : klicken Sie auf den grünen Tasten mit einem schwarzen Kreuz Zum Vergrößern, auf den grünen Button mit einem Gedankenstrich zu verkleinern, oder auf die grünen Pfeile für benachbarte Karten.


METAR-TAF: